createdAt,value
2022-10-04T00:00:47.740Z,11.28
2022-10-04T00:04:28.596Z,11.24
2022-10-04T00:07:36.001Z,11.26
2022-10-04T00:10:38.907Z,11.31
2022-10-04T00:13:49.559Z,11.37
2022-10-04T00:16:53.553Z,11.35
2022-10-04T00:19:56.555Z,11.36
2022-10-04T00:23:26.458Z,11.41
2022-10-04T00:26:29.328Z,11.40
2022-10-04T00:29:39.005Z,11.40
2022-10-04T00:32:41.808Z,11.43
2022-10-04T00:35:44.692Z,11.46
2022-10-04T00:39:03.994Z,11.47
2022-10-04T00:42:13.700Z,11.43
2022-10-04T00:45:25.082Z,11.39
2022-10-04T00:48:45.199Z,11.39
2022-10-04T00:51:57.822Z,11.37
2022-10-04T00:55:07.182Z,11.36
2022-10-04T00:58:20.536Z,11.37
2022-10-04T01:01:26.669Z,11.42
2022-10-04T01:04:39.152Z,11.45
2022-10-04T01:07:46.877Z,11.43
2022-10-04T01:10:58.140Z,11.45
2022-10-04T01:14:45.374Z,11.43
2022-10-04T01:18:09.562Z,11.41
2022-10-04T01:21:21.472Z,11.41
2022-10-04T01:24:24.484Z,11.39
2022-10-04T01:27:47.570Z,11.41
2022-10-04T01:30:50.929Z,11.45
2022-10-04T01:33:57.651Z,11.39
2022-10-04T01:37:01.241Z,11.37
2022-10-04T01:40:04.510Z,11.38
2022-10-04T01:43:11.454Z,11.40
2022-10-04T01:46:23.949Z,11.39
2022-10-04T01:49:32.636Z,11.38
2022-10-04T01:52:49.038Z,11.37
2022-10-04T01:55:55.894Z,11.40
2022-10-04T01:59:02.731Z,11.40
2022-10-04T02:02:49.509Z,11.37
2022-10-04T02:05:56.880Z,11.39
2022-10-04T02:09:02.192Z,11.40
2022-10-04T02:12:06.373Z,11.41
2022-10-04T02:15:11.678Z,11.38
2022-10-04T02:18:21.374Z,11.37
2022-10-04T02:21:24.756Z,11.36
2022-10-04T02:24:35.718Z,11.37
2022-10-04T02:27:38.586Z,11.36
2022-10-04T02:31:06.139Z,11.35
2022-10-04T02:34:09.353Z,11.33
2022-10-04T02:37:12.712Z,11.35
2022-10-04T02:40:20.024Z,11.33
2022-10-04T02:43:27.861Z,11.33
2022-10-04T02:46:45.007Z,11.35
2022-10-04T02:49:53.315Z,11.34
2022-10-04T02:53:10.474Z,11.34
2022-10-04T02:56:13.947Z,11.34
2022-10-04T02:59:18.131Z,11.33
2022-10-04T03:02:31.385Z,11.32
2022-10-04T03:05:34.951Z,11.31
2022-10-04T03:08:43.718Z,11.34
2022-10-04T03:11:47.978Z,11.34
2022-10-04T03:14:53.852Z,11.35
2022-10-04T03:17:56.903Z,11.35
2022-10-04T03:21:05.230Z,11.38
2022-10-04T03:24:15.537Z,11.38
2022-10-04T03:27:29.199Z,11.37
2022-10-04T03:31:28.722Z,11.35
2022-10-04T03:34:38.521Z,11.34
2022-10-04T03:37:42.005Z,11.38
2022-10-04T03:40:53.371Z,11.40
2022-10-04T03:43:58.567Z,11.39
2022-10-04T03:47:54.474Z,11.39
2022-10-04T03:50:58.868Z,11.38
2022-10-04T03:54:03.476Z,11.38
2022-10-04T03:57:06.810Z,11.38
2022-10-04T04:00:17.153Z,11.39
2022-10-04T04:03:21.278Z,11.41
2022-10-04T04:06:29.446Z,11.47
2022-10-04T04:09:41.622Z,11.48
2022-10-04T04:12:52.845Z,11.45
2022-10-04T04:15:57.130Z,11.43
2022-10-04T04:19:02.966Z,11.43
2022-10-04T04:22:06.035Z,11.42
2022-10-04T04:25:16.205Z,11.34
2022-10-04T04:28:27.130Z,11.34
2022-10-04T04:31:58.051Z,11.39
2022-10-04T04:35:07.333Z,11.40
2022-10-04T04:38:26.255Z,11.43
2022-10-04T04:41:33.528Z,11.45
2022-10-04T04:44:47.821Z,11.47
2022-10-04T04:47:53.322Z,11.51
2022-10-04T04:50:58.236Z,11.51
2022-10-04T04:54:05.288Z,11.49
2022-10-04T04:57:08.658Z,11.49
2022-10-04T05:00:18.593Z,11.50
2022-10-04T05:03:21.859Z,11.52
2022-10-04T05:06:29.108Z,11.53
2022-10-04T05:09:37.353Z,11.50
2022-10-04T05:12:40.470Z,11.49
2022-10-04T05:15:44.204Z,11.51
2022-10-04T05:18:48.058Z,11.51
2022-10-04T05:21:54.052Z,11.46
2022-10-04T05:25:03.157Z,11.45
2022-10-04T05:28:06.410Z,11.45
2022-10-04T05:31:27.990Z,11.47
2022-10-04T05:34:37.310Z,11.45
2022-10-04T05:37:51.618Z,11.45
2022-10-04T05:41:08.003Z,11.44
2022-10-04T05:44:26.691Z,11.42
2022-10-04T05:47:31.062Z,11.38
2022-10-04T05:50:40.783Z,11.42
2022-10-04T05:53:44.324Z,11.43
2022-10-04T05:57:24.588Z,11.41
2022-10-04T06:00:57.206Z,11.43
2022-10-04T06:04:00.302Z,11.42
2022-10-04T06:07:41.543Z,11.38
2022-10-04T06:10:57.880Z,11.30
2022-10-04T06:14:09.444Z,11.25
2022-10-04T06:17:29.440Z,11.23
2022-10-04T06:21:02.708Z,11.25
2022-10-04T06:24:17.358Z,11.26
2022-10-04T06:27:25.740Z,11.32
2022-10-04T06:30:39.626Z,11.42
2022-10-04T06:34:00.906Z,11.47
2022-10-04T06:37:19.099Z,11.53
2022-10-04T06:40:40.616Z,11.62
2022-10-04T06:44:31.038Z,11.63
2022-10-04T06:47:37.476Z,11.64
2022-10-04T06:51:16.120Z,11.63
2022-10-04T06:54:40.843Z,11.64
2022-10-04T06:58:15.370Z,11.68
2022-10-04T07:01:24.436Z,11.69
2022-10-04T07:05:07.124Z,11.69
2022-10-04T07:08:34.406Z,11.70
2022-10-04T07:11:51.403Z,11.67
2022-10-04T07:15:00.531Z,11.64
2022-10-04T07:18:09.147Z,11.62
2022-10-04T07:21:16.797Z,11.65
2022-10-04T07:24:27.313Z,11.66
2022-10-04T07:28:15.171Z,11.66
2022-10-04T07:31:28.247Z,11.65
2022-10-04T07:34:36.872Z,11.67
2022-10-04T07:37:58.267Z,11.73
2022-10-04T07:41:03.465Z,11.74
2022-10-04T07:44:44.975Z,11.79
2022-10-04T07:47:48.351Z,11.75
2022-10-04T07:51:15.970Z,11.78
2022-10-04T07:54:18.762Z,11.76
2022-10-04T07:57:40.804Z,11.84
2022-10-04T08:01:05.093Z,11.92
2022-10-04T08:04:11.001Z,12.00
2022-10-04T08:07:21.453Z,12.06
2022-10-04T08:10:35.632Z,12.09
2022-10-04T08:13:51.517Z,12.19
2022-10-04T08:17:06.133Z,12.16
2022-10-04T08:20:25.911Z,12.13
2022-10-04T08:24:07.577Z,12.21
2022-10-04T08:27:29.770Z,12.12
2022-10-04T08:30:52.952Z,12.13
2022-10-04T08:34:21.602Z,12.19
2022-10-04T08:37:53.915Z,12.23
2022-10-04T08:41:35.383Z,12.14
2022-10-04T08:45:02.308Z,12.00
2022-10-04T08:48:12.905Z,12.05
2022-10-04T08:51:54.165Z,12.11
2022-10-04T08:55:38.874Z,12.24
2022-10-04T08:58:49.093Z,12.32
2022-10-04T09:02:25.150Z,12.40
2022-10-04T09:06:05.560Z,12.49
2022-10-04T09:09:27.800Z,12.53
2022-10-04T09:12:44.907Z,12.54
2022-10-04T09:16:15.101Z,12.64
2022-10-04T09:19:40.950Z,12.68
2022-10-04T09:22:57.327Z,12.68
2022-10-04T09:26:15.610Z,12.70
2022-10-04T09:29:54.630Z,12.72
2022-10-04T09:33:15.554Z,12.76
2022-10-04T09:36:41.627Z,12.81
2022-10-04T09:39:44.722Z,12.88
2022-10-04T09:43:12.575Z,12.97
2022-10-04T09:46:30.388Z,12.95
2022-10-04T09:49:59.015Z,12.87
2022-10-04T09:53:07.588Z,12.81
2022-10-04T09:56:42.504Z,12.77
2022-10-04T10:00:14.561Z,12.78
2022-10-04T10:03:50.338Z,12.87
2022-10-04T10:07:22.559Z,13.00
2022-10-04T10:10:56.311Z,13.06
2022-10-04T10:14:24.268Z,13.09
2022-10-04T10:17:41.597Z,13.20
2022-10-04T10:21:10.662Z,13.25
2022-10-04T10:24:44.102Z,13.29
2022-10-04T10:27:57.569Z,13.27
2022-10-04T10:31:31.903Z,13.33
2022-10-04T10:34:57.113Z,13.39
2022-10-04T10:38:19.696Z,13.47
2022-10-04T10:41:49.636Z,13.56
2022-10-04T10:45:16.247Z,13.65
2022-10-04T10:48:35.557Z,13.70
2022-10-04T10:52:15.925Z,13.73
2022-10-04T10:55:44.816Z,13.66
2022-10-04T10:59:17.846Z,13.70
2022-10-04T11:02:50.016Z,13.79
2022-10-04T11:06:15.141Z,13.79
2022-10-04T11:09:39.161Z,13.79
2022-10-04T11:13:08.178Z,13.80
2022-10-04T11:16:54.741Z,13.79
2022-10-04T11:20:18.547Z,13.76
2022-10-04T11:23:44.246Z,13.77
2022-10-04T11:27:06.395Z,13.88
2022-10-04T11:30:15.138Z,13.96
2022-10-04T11:33:39.753Z,13.96
2022-10-04T11:37:18.103Z,14.01
2022-10-04T11:40:47.482Z,14.11
2022-10-04T11:44:19.196Z,14.27
2022-10-04T11:47:31.948Z,14.42
2022-10-04T11:50:49.364Z,14.49
2022-10-04T11:54:13.282Z,14.57
2022-10-04T11:57:31.319Z,14.71
2022-10-04T12:00:53.792Z,14.81
2022-10-04T12:04:09.041Z,14.82
2022-10-04T12:07:24.399Z,14.74
2022-10-04T12:10:40.654Z,14.67
2022-10-04T12:13:46.391Z,14.64
2022-10-04T12:17:08.749Z,14.70
2022-10-04T12:20:30.060Z,14.84
2022-10-04T12:24:00.302Z,15.06
2022-10-04T12:27:22.049Z,15.07
2022-10-04T12:31:08.137Z,15.20
2022-10-04T12:34:14.835Z,15.37
2022-10-04T12:37:41.052Z,15.41
2022-10-04T12:40:53.389Z,15.50
2022-10-04T12:44:37.692Z,15.66
2022-10-04T12:48:20.981Z,15.67
2022-10-04T12:52:14.310Z,15.90
2022-10-04T12:55:35.746Z,15.98
2022-10-04T12:59:12.213Z,15.73
2022-10-04T13:02:36.636Z,15.68
2022-10-04T13:06:07.327Z,15.56
2022-10-04T13:09:19.173Z,15.37
2022-10-04T13:12:29.884Z,15.31
2022-10-04T13:19:38.111Z,15.39
2022-10-04T13:23:01.803Z,15.52
2022-10-04T13:26:23.838Z,15.48
2022-10-04T13:29:42.906Z,15.37
2022-10-04T13:32:53.175Z,15.21
2022-10-04T13:36:08.381Z,15.12
2022-10-04T13:39:36.012Z,15.32
2022-10-04T13:43:08.506Z,15.41
2022-10-04T13:46:48.851Z,15.41
2022-10-04T13:49:58.171Z,15.31
2022-10-04T13:53:44.614Z,15.34
2022-10-04T13:57:07.123Z,15.49
2022-10-04T14:00:35.025Z,15.52
2022-10-04T14:04:08.392Z,15.56
2022-10-04T14:07:34.774Z,15.66
2022-10-04T14:11:02.853Z,15.44
2022-10-04T14:14:33.307Z,15.44
2022-10-04T14:18:01.491Z,15.46
2022-10-04T14:21:19.363Z,15.50
2022-10-04T14:24:39.169Z,15.46
2022-10-04T14:28:00.423Z,15.42
2022-10-04T14:31:47.238Z,15.50
2022-10-04T14:35:16.340Z,15.59
2022-10-04T14:38:53.922Z,15.60
2022-10-04T14:42:44.511Z,15.73
2022-10-04T14:46:07.268Z,15.79
2022-10-04T14:49:51.626Z,15.64
2022-10-04T14:53:32.349Z,15.52
2022-10-04T14:56:45.421Z,15.45
2022-10-04T15:00:12.594Z,15.36
2022-10-04T15:03:29.607Z,15.30
2022-10-04T15:06:40.331Z,15.38
2022-10-04T15:09:47.075Z,15.49
2022-10-04T15:13:18.151Z,15.59
2022-10-04T15:16:53.690Z,15.61
2022-10-04T15:20:20.927Z,15.60
2022-10-04T15:23:35.246Z,15.67
2022-10-04T15:26:48.350Z,15.65
2022-10-04T15:30:30.860Z,15.55
2022-10-04T15:34:02.246Z,15.50
2022-10-04T15:37:28.274Z,15.40
2022-10-04T15:40:48.246Z,15.28
2022-10-04T15:44:12.924Z,15.12
2022-10-04T15:47:25.200Z,15.01
2022-10-04T15:51:02.281Z,15.02
2022-10-04T15:54:40.406Z,15.01
2022-10-04T15:57:55.524Z,15.00
2022-10-04T16:01:20.568Z,14.97
2022-10-04T16:04:26.039Z,14.95
2022-10-04T16:07:40.678Z,14.96
2022-10-04T16:11:07.131Z,14.95
2022-10-04T16:14:37.799Z,14.92
2022-10-04T16:18:05.426Z,14.89
2022-10-04T16:21:37.230Z,14.82
2022-10-04T16:24:45.782Z,14.77
2022-10-04T16:27:57.391Z,14.74
2022-10-04T16:31:14.483Z,14.65
2022-10-04T16:34:45.438Z,14.61
2022-10-04T16:38:13.045Z,14.50
2022-10-04T16:41:33.655Z,14.46
2022-10-04T16:44:52.136Z,14.42
2022-10-04T16:48:00.249Z,14.37
2022-10-04T16:51:23.614Z,14.35
2022-10-04T16:54:58.178Z,14.29
2022-10-04T16:58:41.489Z,14.20
2022-10-04T17:02:28.423Z,14.08
2022-10-04T17:05:47.403Z,14.08
2022-10-04T17:09:06.962Z,14.04
2022-10-04T17:12:35.585Z,13.98
2022-10-04T17:15:44.414Z,13.97
2022-10-04T17:19:20.780Z,13.98
2022-10-04T17:22:34.259Z,13.98
2022-10-04T17:25:48.322Z,14.02
2022-10-04T17:28:58.359Z,14.04
2022-10-04T17:32:16.396Z,14.02
2022-10-04T17:35:23.502Z,13.97
2022-10-04T17:38:29.991Z,13.91
2022-10-04T17:42:27.682Z,13.92
2022-10-04T17:45:51.250Z,13.96
2022-10-04T17:49:21.892Z,13.95
2022-10-04T17:52:52.688Z,13.94
2022-10-04T17:55:58.066Z,13.88
2022-10-04T17:59:12.605Z,13.80
2022-10-04T18:02:45.664Z,13.82
2022-10-04T18:05:58.351Z,13.81
2022-10-04T18:09:10.966Z,13.70
2022-10-04T18:12:26.611Z,13.69
2022-10-04T18:15:38.845Z,13.60
2022-10-04T18:18:47.451Z,13.65
2022-10-04T18:21:54.703Z,13.65
2022-10-04T18:25:21.455Z,13.68
2022-10-04T18:28:25.612Z,13.60
2022-10-04T18:31:40.454Z,13.56
2022-10-04T18:34:43.654Z,13.46
2022-10-04T18:37:46.926Z,13.45
2022-10-04T18:41:04.601Z,13.45
2022-10-04T18:44:15.726Z,13.38
2022-10-04T18:47:31.847Z,13.37
2022-10-04T18:50:46.969Z,13.38
2022-10-04T18:54:16.779Z,13.44
2022-10-04T18:57:27.103Z,13.42
2022-10-04T19:01:04.177Z,13.35
2022-10-04T19:04:17.377Z,13.33
2022-10-04T19:07:36.919Z,13.33
2022-10-04T19:10:52.531Z,13.28
2022-10-04T19:14:34.737Z,13.23
2022-10-04T19:18:19.920Z,13.20
2022-10-04T19:21:29.220Z,13.17
2022-10-04T19:24:49.008Z,13.22
2022-10-04T19:28:01.006Z,13.23
2022-10-04T19:31:26.498Z,13.20
2022-10-04T19:34:57.482Z,13.16
2022-10-04T19:38:10.176Z,13.14
2022-10-04T19:41:45.271Z,13.21
2022-10-04T19:44:52.670Z,13.25
2022-10-04T19:48:01.818Z,13.28
2022-10-04T19:51:09.322Z,13.26
2022-10-04T19:54:22.670Z,13.24
2022-10-04T19:57:37.366Z,13.16
2022-10-04T20:00:40.564Z,13.12
2022-10-04T20:03:46.801Z,13.15
2022-10-04T20:06:56.369Z,13.20
2022-10-04T20:10:28.981Z,13.18
2022-10-04T20:13:34.558Z,13.12
2022-10-04T20:16:48.368Z,13.14
2022-10-04T20:19:52.340Z,13.13
2022-10-04T20:22:57.201Z,13.12
2022-10-04T20:26:00.927Z,13.15
2022-10-04T20:29:05.227Z,13.16
2022-10-04T20:32:12.808Z,13.20
2022-10-04T20:35:54.702Z,13.19
2022-10-04T20:39:00.144Z,13.14
2022-10-04T20:42:21.719Z,13.10
2022-10-04T20:45:27.661Z,13.07
2022-10-04T20:48:37.563Z,13.08
2022-10-04T20:51:47.964Z,13.09
2022-10-04T20:54:54.506Z,13.09
2022-10-04T20:58:03.651Z,13.05
2022-10-04T21:01:36.925Z,13.00
2022-10-04T21:04:44.820Z,13.08
2022-10-04T21:07:47.749Z,13.11
2022-10-04T21:11:08.620Z,13.10
2022-10-04T21:14:26.570Z,13.08
2022-10-04T21:17:29.337Z,13.10
2022-10-04T21:20:43.505Z,13.15
2022-10-04T21:23:46.733Z,13.12
2022-10-04T21:26:59.449Z,13.09
2022-10-04T21:30:05.897Z,13.09
2022-10-04T21:33:08.766Z,13.08
2022-10-04T21:36:11.671Z,13.08
2022-10-04T21:39:14.719Z,13.08
2022-10-04T21:42:18.222Z,13.04
2022-10-04T21:45:21.064Z,13.04
2022-10-04T21:48:24.862Z,13.09
2022-10-04T21:51:27.660Z,13.11
2022-10-04T21:54:30.424Z,13.03
2022-10-04T21:57:35.659Z,12.96
2022-10-04T22:00:39.083Z,12.91
2022-10-04T22:03:41.896Z,12.85
2022-10-04T22:06:45.403Z,12.81
2022-10-04T22:09:48.390Z,12.72
2022-10-04T22:12:51.429Z,12.63
2022-10-04T22:15:55.318Z,12.62
2022-10-04T22:18:58.355Z,12.57
2022-10-04T22:22:01.371Z,12.53
2022-10-04T22:25:13.709Z,12.45
2022-10-04T22:28:26.852Z,12.45
2022-10-04T22:31:29.885Z,12.38
2022-10-04T22:34:32.787Z,12.39
2022-10-04T22:37:35.729Z,12.40
2022-10-04T22:40:38.695Z,12.35
2022-10-04T22:43:41.692Z,12.34
2022-10-04T22:47:07.066Z,12.27
2022-10-04T22:50:27.154Z,12.13
2022-10-04T22:53:30.182Z,12.16
2022-10-04T22:56:33.187Z,12.20
2022-10-04T22:59:42.389Z,12.27
2022-10-04T23:02:45.526Z,12.22
2022-10-04T23:05:48.652Z,12.13
2022-10-04T23:08:51.557Z,12.04
2022-10-04T23:11:54.435Z,11.97
2022-10-04T23:14:57.196Z,12.02
2022-10-04T23:18:00.120Z,12.06
2022-10-04T23:21:03.526Z,12.02
2022-10-04T23:24:12.527Z,11.91
2022-10-04T23:27:17.470Z,11.89
2022-10-04T23:30:22.807Z,11.81
2022-10-04T23:33:25.675Z,11.78
2022-10-04T23:36:28.786Z,11.66
2022-10-04T23:39:34.926Z,11.62
2022-10-04T23:42:38.011Z,11.60
2022-10-04T23:45:44.200Z,11.52
2022-10-04T23:48:48.552Z,11.48
2022-10-04T23:51:58.681Z,11.52
2022-10-04T23:55:02.838Z,11.51
2022-10-04T23:58:22.299Z,11.50
